Terminal Aerodrome Forecast
Issued by NWS Omaha/Valley, NE

Home | Current Version | Previous Version | Text Only | Print | Product List | Glossary On
Versions: 1 2 3 4 5 6 7 8 9 10 11 12 13 14 15 16 17 18 19 20 21 22 23 24 25 26 27 28 29 30 31 32 33 34 35 36 37 38 39 40 41 42
000
FTUS43 KOAX 200520
TAFOFK
TAF
KOFK 200520Z 2006/2106 29006KT P6SM VCTS SCT030CB BKN100
      TEMPO 2006/2008 VRB15G25KT 3SM TSRA BKN030CB
     FM200800 30007KT P6SM -SHRA BKN050
      TEMPO 2008/2011 4SM TSRA BKN030CB
     FM201100 30010KT P6SM SCT030 BKN250
     FM201600 32012KT P6SM SCT100=

USA.gov is the U.S. government's official web portal to all federal, state and local government web resources and services.